createdAt,value
2019-05-25T00:01:45.775Z,17.04
2019-05-25T00:04:18.155Z,16.96
2019-05-25T00:06:50.669Z,16.89
2019-05-25T00:09:23.077Z,16.81
2019-05-25T00:11:55.485Z,16.78
2019-05-25T00:14:27.861Z,16.71
2019-05-25T00:17:00.387Z,16.71
2019-05-25T00:19:32.763Z,16.79
2019-05-25T00:22:06.638Z,16.79
2019-05-25T00:24:40.001Z,16.91
2019-05-25T00:27:12.722Z,17.04
2019-05-25T00:29:45.358Z,17.14
2019-05-25T00:32:17.976Z,17.24
2019-05-25T00:34:50.502Z,17.33
2019-05-25T00:37:23.156Z,17.35
2019-05-25T00:39:55.720Z,17.25
2019-05-25T00:42:28.368Z,17.22
2019-05-25T00:45:00.804Z,17.03
2019-05-25T00:47:33.468Z,16.93
2019-05-25T00:50:09.314Z,16.87
2019-05-25T00:52:42.285Z,16.86
2019-05-25T00:55:14.896Z,16.85
2019-05-25T00:57:47.565Z,16.81
2019-05-25T01:00:20.554Z,16.81
2019-05-25T01:02:53.260Z,16.81
2019-05-25T01:05:25.804Z,16.80
2019-05-25T01:07:58.545Z,16.81
2019-05-25T01:10:31.617Z,16.77
2019-05-25T01:13:04.274Z,16.72
2019-05-25T01:15:36.878Z,16.71
2019-05-25T01:18:09.475Z,16.67
2019-05-25T01:20:41.948Z,16.65
2019-05-25T01:23:14.977Z,16.62
2019-05-25T01:25:47.443Z,16.58
2019-05-25T01:28:20.188Z,16.57
2019-05-25T01:30:55.757Z,16.58
2019-05-25T01:33:32.030Z,16.57
2019-05-25T01:36:05.842Z,16.61
2019-05-25T01:38:39.962Z,16.57
2019-05-25T01:41:31.369Z,16.60
2019-05-25T01:44:05.814Z,16.58
2019-05-25T01:46:43.870Z,16.55
2019-05-25T01:49:16.565Z,16.52
2019-05-25T01:51:50.652Z,16.52
2019-05-25T01:54:25.133Z,16.53
2019-05-25T02:04:34.090Z,16.60
2019-05-25T02:21:32.842Z,16.76
2019-05-25T02:24:08.011Z,16.82
2019-05-25T02:26:58.213Z,16.86
2019-05-25T02:29:33.955Z,16.90
2019-05-25T02:32:08.704Z,16.96
2019-05-25T02:34:48.228Z,16.99
2019-05-25T02:40:49.331Z,17.08
2019-05-25T02:43:22.011Z,17.11
2019-05-25T02:45:55.223Z,17.12
2019-05-25T02:48:37.137Z,17.11
2019-05-25T02:51:21.203Z,17.13
2019-05-25T02:57:13.620Z,17.14
2019-05-25T02:59:46.185Z,17.16
2019-05-25T03:02:19.254Z,17.19
2019-05-25T03:04:51.908Z,17.22
2019-05-25T03:07:25.047Z,17.23
2019-05-25T03:13:05.484Z,17.29
2019-05-25T03:15:39.884Z,17.37
2019-05-25T03:18:15.251Z,17.47
2019-05-25T03:20:50.733Z,17.58
2019-05-25T03:23:58.825Z,17.71
2019-05-25T03:30:35.756Z,17.84
2019-05-25T03:33:13.616Z,17.81
2019-05-25T03:35:47.439Z,17.79
2019-05-25T03:38:23.077Z,17.80
2019-05-25T03:41:07.764Z,17.81
2019-05-25T03:43:41.001Z,17.86
2019-05-25T03:46:13.491Z,17.90
2019-05-25T03:48:46.018Z,17.97
2019-05-25T03:51:19.183Z,18.02
2019-05-25T03:53:51.794Z,18.19
2019-05-25T03:56:24.237Z,18.55
2019-05-25T03:58:56.816Z,18.84
2019-05-25T04:01:29.376Z,19.16
2019-05-25T04:04:01.893Z,19.67
2019-05-25T04:06:34.508Z,20.21
2019-05-25T04:09:07.507Z,20.71
2019-05-25T04:11:39.883Z,20.75
2019-05-25T04:14:12.408Z,20.55
2019-05-25T04:16:45.307Z,20.34
2019-05-25T04:19:17.871Z,20.07
2019-05-25T04:21:57.669Z,19.91
2019-05-25T04:24:32.080Z,19.76
2019-05-25T04:27:05.230Z,19.54
2019-05-25T04:29:37.957Z,19.40
2019-05-25T04:32:11.202Z,19.25
2019-05-25T04:34:43.735Z,19.14
2019-05-25T04:37:16.149Z,19.06
2019-05-25T04:39:48.645Z,18.96
2019-05-25T04:42:21.044Z,18.94
2019-05-25T04:44:53.618Z,19.02
2019-05-25T04:47:27.191Z,19.06
2019-05-25T04:50:00.032Z,19.15
2019-05-25T04:52:32.386Z,19.24
2019-05-25T04:55:09.078Z,19.32
2019-05-25T04:57:41.530Z,19.32
2019-05-25T05:00:15.850Z,19.41
2019-05-25T05:02:50.954Z,19.50
2019-05-25T05:05:23.530Z,19.61
2019-05-25T05:07:56.012Z,19.70
2019-05-25T05:10:28.339Z,19.85
2019-05-25T05:13:00.712Z,20.07
2019-05-25T05:15:33.791Z,20.24
2019-05-25T05:18:06.151Z,20.32
2019-05-25T05:20:38.896Z,20.47
2019-05-25T05:23:11.316Z,20.53
2019-05-25T05:25:43.907Z,20.53
2019-05-25T05:28:16.281Z,20.51
2019-05-25T05:30:48.895Z,20.41
2019-05-25T05:33:24.894Z,20.49
2019-05-25T05:35:59.137Z,20.72
2019-05-25T05:38:32.831Z,21.15
2019-05-25T05:41:05.505Z,21.43
2019-05-25T05:43:40.027Z,21.82
2019-05-25T05:46:13.836Z,22.34
2019-05-25T05:48:49.229Z,22.33
2019-05-25T05:51:21.670Z,22.55
2019-05-25T05:53:57.312Z,22.74
2019-05-25T05:56:29.639Z,22.77
2019-05-25T05:59:02.882Z,22.58
2019-05-25T06:01:35.332Z,22.28
2019-05-25T06:04:07.845Z,22.35
2019-05-25T06:06:40.279Z,22.05
2019-05-25T06:09:13.196Z,21.97
2019-05-25T06:11:45.558Z,22.20
2019-05-25T06:14:20.775Z,22.54
2019-05-25T06:16:54.391Z,22.66
2019-05-25T06:19:26.973Z,22.55
2019-05-25T06:21:59.426Z,22.58
2019-05-25T06:24:31.906Z,22.93
2019-05-25T06:27:04.275Z,23.56
2019-05-25T06:29:37.479Z,23.95
2019-05-25T06:32:09.846Z,24.10
2019-05-25T06:34:42.352Z,24.34
2019-05-25T06:37:15.110Z,24.66
2019-05-25T06:39:47.609Z,24.55
2019-05-25T06:42:21.226Z,24.43
2019-05-25T06:44:53.764Z,24.10
2019-05-25T06:47:26.116Z,24.06
2019-05-25T06:50:00.484Z,24.32
2019-05-25T06:52:32.936Z,24.78
2019-05-25T06:55:09.257Z,25.10
2019-05-25T06:57:43.500Z,25.48
2019-05-25T07:00:24.347Z,25.26
2019-05-25T07:02:56.717Z,24.58
2019-05-25T07:05:29.294Z,24.57
2019-05-25T07:08:01.742Z,24.55
2019-05-25T07:10:34.357Z,24.48
2019-05-25T07:13:13.806Z,24.41
2019-05-25T07:15:57.940Z,24.94
2019-05-25T07:18:35.255Z,25.19
2019-05-25T07:21:06.265Z,25.37
2019-05-25T07:23:38.893Z,25.66
2019-05-25T07:26:11.401Z,25.59
2019-05-25T07:28:43.840Z,25.69
2019-05-25T07:31:16.338Z,25.83
2019-05-25T07:33:50.735Z,26.05
2019-05-25T07:36:25.089Z,26.17
2019-05-25T08:39:08.550Z,28.30
2019-05-25T08:41:41.099Z,28.57
2019-05-25T08:44:13.622Z,28.44
2019-05-25T08:46:46.012Z,28.71
2019-05-25T08:49:18.630Z,28.66
2019-05-25T08:51:51.091Z,28.05
2019-05-25T08:54:23.622Z,28.06
2019-05-25T08:56:56.022Z,28.70
2019-05-25T08:59:28.587Z,29.42
2019-05-25T09:02:02.047Z,29.72
2019-05-25T09:04:34.665Z,29.86
2019-05-25T09:07:07.105Z,29.87
2019-05-25T09:09:39.710Z,29.78
2019-05-25T09:12:12.175Z,28.82
2019-05-25T09:29:18.680Z,28.27
2019-05-25T09:31:51.199Z,28.29
2019-05-25T09:34:23.807Z,28.51
2019-05-25T09:36:56.163Z,28.59
2019-05-25T09:39:28.627Z,28.08
2019-05-25T09:42:01.006Z,27.39
2019-05-25T09:44:33.570Z,27.05
2019-05-25T09:47:06.136Z,26.99
2019-05-25T09:49:38.774Z,26.81
2019-05-25T09:52:11.226Z,26.78
2019-05-25T09:54:43.704Z,26.81
2019-05-25T09:57:16.679Z,26.85
2019-05-25T09:59:49.261Z,26.77
2019-05-25T10:02:21.753Z,26.57
2019-05-25T10:04:54.655Z,25.49
2019-05-25T10:07:27.124Z,24.64
2019-05-25T10:09:59.525Z,24.24
2019-05-25T10:12:32.638Z,24.01
2019-05-25T10:15:06.930Z,23.65
2019-05-25T10:17:39.204Z,23.19
2019-05-25T10:20:11.768Z,23.05
2019-05-25T10:22:44.107Z,22.70
2019-05-25T10:25:16.838Z,22.26
2019-05-25T10:27:49.255Z,22.06
2019-05-25T10:30:21.805Z,21.97
2019-05-25T10:32:54.228Z,21.87
2019-05-25T10:35:26.591Z,21.83
2019-05-25T10:37:59.129Z,21.69
2019-05-25T10:40:31.740Z,21.87
2019-05-25T10:43:04.195Z,21.98
2019-05-25T10:45:36.563Z,22.05
2019-05-25T10:48:08.794Z,22.29
2019-05-25T10:50:41.164Z,22.06
2019-05-25T10:53:13.514Z,21.54
2019-05-25T10:55:45.848Z,21.28
2019-05-25T10:58:18.185Z,21.09
2019-05-25T11:00:51.706Z,21.27
2019-05-25T11:03:24.211Z,21.69
2019-05-25T11:05:56.624Z,21.93
2019-05-25T11:08:29.127Z,22.20
2019-05-25T11:11:01.489Z,22.53
2019-05-25T11:13:33.827Z,22.68
2019-05-25T11:16:08.991Z,22.75
2019-05-25T11:18:41.348Z,22.59
2019-05-25T11:21:14.607Z,22.66
2019-05-25T11:23:48.185Z,22.77
2019-05-25T11:26:20.845Z,23.02
2019-05-25T11:28:53.187Z,23.23
2019-05-25T11:31:25.565Z,23.56
2019-05-25T11:33:58.005Z,23.87
2019-05-25T11:36:30.621Z,24.02
2019-05-25T11:39:05.712Z,24.11
2019-05-25T11:41:38.979Z,24.19
2019-05-25T11:44:12.820Z,24.24
2019-05-25T11:46:45.493Z,24.38
2019-05-25T11:49:22.534Z,24.59
2019-05-25T11:51:52.339Z,24.80
2019-05-25T11:54:24.388Z,24.62
2019-05-25T11:56:56.752Z,24.50
2019-05-25T11:59:28.963Z,24.30
2019-05-25T12:02:02.930Z,24.24
2019-05-25T12:04:38.751Z,24.35
2019-05-25T12:07:12.753Z,24.60
2019-05-25T12:09:49.175Z,25.17
2019-05-25T12:12:22.076Z,25.42
2019-05-25T12:14:54.302Z,25.69
2019-05-25T12:17:26.948Z,26.07
2019-05-25T12:19:59.519Z,26.30
2019-05-25T12:22:34.994Z,26.52
2019-05-25T12:25:08.069Z,26.28
2019-05-25T12:27:40.505Z,26.27
2019-05-25T12:30:14.314Z,26.14
2019-05-25T12:32:47.064Z,26.00
2019-05-25T12:35:19.771Z,25.69
2019-05-25T12:37:53.891Z,25.48
2019-05-25T12:40:26.178Z,25.73
2019-05-25T12:42:58.766Z,24.68
2019-05-25T12:45:31.473Z,24.32
2019-05-25T12:48:04.359Z,24.26
2019-05-25T12:50:37.039Z,24.29
2019-05-25T12:53:10.905Z,24.32
2019-05-25T12:55:45.012Z,24.20
2019-05-25T12:58:19.073Z,24.01
2019-05-25T13:00:56.100Z,23.63
2019-05-25T13:03:28.438Z,23.46
2019-05-25T13:06:00.684Z,22.83
2019-05-25T13:08:34.287Z,22.76
2019-05-25T13:11:09.539Z,22.66
2019-05-25T13:13:41.075Z,22.54
2019-05-25T13:16:13.475Z,22.78
2019-05-25T13:18:46.606Z,23.08
2019-05-25T13:21:20.920Z,23.29
2019-05-25T13:23:53.770Z,23.62
2019-05-25T13:26:26.389Z,23.76
2019-05-25T13:28:59.256Z,24.06
2019-05-25T13:31:32.685Z,24.36
2019-05-25T13:34:07.076Z,24.41
2019-05-25T13:36:39.943Z,24.36
2019-05-25T13:39:14.454Z,24.19
2019-05-25T13:41:49.055Z,23.92
2019-05-25T13:44:25.645Z,23.75
2019-05-25T13:46:58.849Z,23.63
2019-05-25T13:49:32.133Z,23.58
2019-05-25T13:52:06.753Z,23.65
2019-05-25T13:54:40.535Z,23.87
2019-05-25T13:57:13.287Z,24.01
2019-05-25T13:59:45.989Z,24.08
2019-05-25T14:02:18.726Z,24.11
2019-05-25T14:04:51.724Z,24.01
2019-05-25T14:07:24.479Z,24.02
2019-05-25T14:09:57.081Z,24.28
2019-05-25T14:12:31.110Z,24.30
2019-05-25T14:15:05.227Z,24.46
2019-05-25T14:17:40.692Z,24.67
2019-05-25T14:20:15.411Z,24.50
2019-05-25T14:22:49.264Z,24.44
2019-05-25T14:25:21.839Z,24.30
2019-05-25T14:27:54.261Z,24.37
2019-05-25T14:30:26.943Z,24.37
2019-05-25T14:32:59.513Z,24.36
2019-05-25T14:35:32.215Z,24.42
2019-05-25T14:38:04.959Z,24.34
2019-05-25T14:40:40.833Z,24.41
2019-05-25T14:43:13.523Z,24.51
2019-05-25T14:45:46.208Z,24.60
2019-05-25T14:48:19.316Z,24.54
2019-05-25T14:50:52.383Z,24.27
2019-05-25T14:53:24.905Z,24.29
2019-05-25T14:55:57.725Z,24.41
2019-05-25T14:58:30.460Z,24.56
2019-05-25T15:01:04.264Z,24.78
2019-05-25T15:03:37.746Z,25.04
2019-05-25T15:06:10.325Z,25.10
2019-05-25T15:08:42.983Z,25.11
2019-05-25T15:11:15.602Z,24.85
2019-05-25T15:13:48.371Z,24.78
2019-05-25T15:16:22.403Z,24.77
2019-05-25T15:18:55.176Z,24.89
2019-05-25T15:21:28.085Z,24.67
2019-05-25T15:24:00.829Z,24.64
2019-05-25T15:26:33.558Z,24.41
2019-05-25T15:29:06.312Z,24.46
2019-05-25T15:31:39.272Z,24.25
2019-05-25T15:34:11.953Z,24.18
2019-05-25T15:36:45.819Z,24.07
2019-05-25T15:39:19.960Z,23.93
2019-05-25T15:41:53.461Z,23.91
2019-05-25T15:44:26.873Z,23.66
2019-05-25T15:46:59.914Z,23.42
2019-05-25T15:49:33.863Z,23.30
2019-05-25T15:52:07.562Z,23.19
2019-05-25T15:54:40.291Z,23.14
2019-05-25T15:57:14.984Z,23.08
2019-05-25T15:59:49.910Z,23.01
2019-05-25T16:02:36.309Z,22.90
2019-05-25T16:04:57.340Z,22.84
2019-05-25T16:07:31.675Z,22.86
2019-05-25T16:10:07.531Z,22.79
2019-05-25T16:12:40.464Z,22.65
2019-05-25T16:15:13.830Z,22.61
2019-05-25T16:17:46.582Z,22.58
2019-05-25T16:20:22.211Z,22.49
2019-05-25T16:22:55.583Z,22.45
2019-05-25T16:25:28.983Z,22.43
2019-05-25T16:28:01.984Z,22.36
2019-05-25T16:30:34.918Z,22.30
2019-05-25T16:33:13.544Z,22.26
2019-05-25T16:35:44.377Z,22.15
2019-05-25T16:38:17.342Z,22.12
2019-05-25T16:40:50.291Z,22.03
2019-05-25T16:43:23.419Z,21.92
2019-05-25T16:45:59.810Z,21.79
2019-05-25T16:48:32.869Z,21.71
2019-05-25T16:51:08.177Z,21.57
2019-05-25T16:53:42.868Z,21.52
2019-05-25T16:56:15.928Z,21.37
2019-05-25T16:58:49.032Z,21.22
2019-05-25T17:01:22.149Z,21.10
2019-05-25T17:03:55.470Z,21.34
2019-05-25T17:06:28.615Z,21.59
2019-05-25T17:09:02.060Z,21.51
2019-05-25T17:11:37.515Z,21.36
2019-05-25T17:14:10.816Z,21.21
2019-05-25T17:16:44.216Z,21.03
2019-05-25T17:19:18.354Z,20.98
2019-05-25T17:21:51.834Z,20.84
2019-05-25T17:24:26.864Z,20.41
2019-05-25T17:27:00.091Z,20.25
2019-05-25T17:29:36.120Z,20.10
2019-05-25T17:32:08.481Z,20.01
2019-05-25T17:34:41.065Z,19.85
2019-05-25T17:37:13.518Z,19.76
2019-05-25T17:39:46.301Z,19.67
2019-05-25T17:42:19.257Z,19.63
2019-05-25T17:44:52.069Z,19.59
2019-05-25T17:47:26.550Z,19.57
2019-05-25T17:50:04.461Z,19.54
2019-05-25T17:52:37.751Z,19.52
2019-05-25T17:55:11.009Z,19.48
2019-05-25T17:57:43.894Z,19.38
2019-05-25T18:00:19.595Z,19.25
2019-05-25T18:02:52.537Z,19.13
2019-05-25T18:05:25.757Z,19.07
2019-05-25T18:08:00.402Z,19.00
2019-05-25T18:10:49.015Z,18.91
2019-05-25T18:13:08.177Z,18.94
2019-05-25T18:15:41.230Z,18.86
2019-05-25T18:18:14.329Z,18.89
2019-05-25T18:20:49.983Z,18.83
2019-05-25T18:23:23.728Z,18.66
2019-05-25T18:25:58.308Z,18.53
2019-05-25T18:28:32.250Z,18.41
2019-05-25T18:31:05.341Z,18.36
2019-05-25T18:33:38.334Z,18.37
2019-05-25T18:36:14.711Z,18.46
2019-05-25T18:38:49.955Z,18.49
2019-05-25T18:41:24.508Z,18.49
2019-05-25T18:43:57.876Z,18.52
2019-05-25T18:46:32.174Z,18.55
2019-05-25T18:49:05.484Z,18.64
2019-05-25T18:51:39.036Z,18.74
2019-05-25T18:54:11.975Z,18.79
2019-05-25T18:56:47.748Z,18.84
2019-05-25T18:59:20.208Z,18.85
2019-05-25T19:01:54.229Z,18.79
2019-05-25T19:04:43.072Z,18.75
2019-05-25T19:07:00.982Z,18.71
2019-05-25T19:09:34.941Z,18.69
2019-05-25T19:12:09.558Z,18.65
2019-05-25T19:14:43.927Z,18.62
2019-05-25T19:17:16.538Z,18.46
2019-05-25T19:19:51.711Z,18.46
2019-05-25T19:22:24.289Z,18.48
2019-05-25T19:24:58.832Z,18.50
2019-05-25T19:27:32.420Z,18.42
2019-05-25T19:30:08.748Z,18.45
2019-05-25T19:32:41.703Z,18.40
2019-05-25T19:35:14.474Z,18.36
2019-05-25T19:37:47.361Z,18.28
2019-05-25T19:40:20.477Z,18.31
2019-05-25T19:42:55.599Z,18.30
2019-05-25T19:45:32.618Z,18.20
2019-05-25T19:48:05.896Z,18.23
2019-05-25T19:50:40.062Z,18.17
2019-05-25T19:53:13.559Z,18.13
2019-05-25T19:55:48.589Z,18.12
2019-05-25T19:58:21.204Z,18.10
2019-05-25T20:00:53.610Z,18.10
2019-05-25T20:03:26.128Z,18.07
2019-05-25T20:05:58.524Z,18.06
2019-05-25T20:08:32.152Z,18.10
2019-05-25T20:11:04.686Z,18.12
2019-05-25T20:13:40.780Z,18.13
2019-05-25T20:16:13.218Z,18.09
2019-05-25T20:18:45.915Z,18.09
2019-05-25T20:21:19.771Z,18.09
2019-05-25T20:23:52.469Z,18.06
2019-05-25T20:26:24.935Z,18.07
2019-05-25T20:29:00.582Z,18.08
2019-05-25T20:31:32.929Z,18.07
2019-05-25T20:34:05.869Z,18.07
2019-05-25T20:36:38.336Z,18.07
2019-05-25T20:39:12.038Z,18.07
2019-05-25T20:41:44.582Z,18.05
2019-05-25T20:44:17.038Z,18.04
2019-05-25T20:46:54.134Z,18.04
2019-05-25T20:49:26.464Z,18.05
2019-05-25T20:52:03.094Z,18.04
2019-05-25T20:54:35.505Z,18.01
2019-05-25T20:57:08.089Z,17.98
2019-05-25T20:59:40.473Z,17.95
2019-05-25T21:02:12.980Z,17.91
2019-05-25T21:04:46.493Z,17.88
2019-05-25T21:07:18.936Z,17.84
2019-05-25T21:09:51.326Z,17.80
2019-05-25T21:12:24.168Z,17.76
2019-05-25T21:14:56.644Z,17.72
2019-05-25T21:17:29.164Z,17.66
2019-05-25T21:20:01.835Z,17.63
2019-05-25T21:22:35.349Z,17.62
2019-05-25T21:25:09.411Z,17.59
2019-05-25T21:27:42.402Z,17.56
2019-05-25T21:30:21.520Z,17.54
2019-05-25T21:32:54.091Z,17.50
2019-05-25T21:35:26.596Z,17.47
2019-05-25T21:37:59.143Z,17.51
2019-05-25T21:40:31.501Z,17.32
2019-05-25T21:43:04.008Z,17.08
2019-05-25T21:45:36.413Z,17.05
2019-05-25T21:48:08.936Z,17.04
2019-05-25T21:50:41.304Z,16.99
2019-05-25T21:53:13.818Z,16.98
2019-05-25T21:55:46.199Z,16.95
2019-05-25T21:58:18.778Z,16.92
2019-05-25T22:00:51.640Z,16.95
2019-05-25T22:03:24.154Z,17.00
2019-05-25T22:05:56.531Z,17.04
2019-05-25T22:08:29.058Z,17.05
2019-05-25T22:11:01.431Z,17.04
2019-05-25T22:13:33.922Z,17.04
2019-05-25T22:16:06.313Z,17.02
2019-05-25T22:18:38.852Z,17.02
2019-05-25T22:21:11.241Z,16.99
2019-05-25T22:23:43.645Z,16.96
2019-05-25T22:26:16.024Z,16.92
2019-05-25T22:28:48.517Z,16.88
2019-05-25T22:31:22.222Z,16.86
2019-05-25T22:33:54.751Z,16.82
2019-05-25T22:36:39.613Z,16.81
2019-05-25T22:39:01.427Z,16.80
2019-05-25T22:41:35.094Z,16.80
2019-05-25T22:44:07.729Z,16.82
2019-05-25T22:46:40.139Z,16.81
2019-05-25T22:49:12.551Z,16.80
2019-05-25T22:51:44.939Z,16.81
2019-05-25T22:54:18.840Z,16.81
2019-05-25T22:56:51.223Z,16.81
2019-05-25T22:59:23.772Z,16.79
2019-05-25T23:01:56.239Z,16.78
2019-05-25T23:04:28.743Z,16.76
2019-05-25T23:07:01.219Z,16.76
2019-05-25T23:09:33.746Z,16.75
2019-05-25T23:12:07.323Z,16.72
2019-05-25T23:14:39.830Z,16.67
2019-05-25T23:17:12.274Z,16.61
2019-05-25T23:19:44.793Z,16.54
2019-05-25T23:22:17.171Z,16.48
2019-05-25T23:24:49.687Z,16.46
2019-05-25T23:27:22.122Z,16.48
2019-05-25T23:29:54.699Z,16.48
2019-05-25T23:32:27.108Z,16.50
2019-05-25T23:34:59.647Z,16.53
2019-05-25T23:37:32.121Z,16.55
2019-05-25T23:40:07.024Z,16.56
2019-05-25T23:42:39.407Z,16.55
2019-05-25T23:45:11.996Z,16.52
2019-05-25T23:47:44.449Z,16.48
2019-05-25T23:50:17.049Z,16.43
2019-05-25T23:52:49.709Z,16.38
2019-05-25T23:55:22.658Z,16.36
2019-05-25T23:57:55.037Z,16.34
